Time;durP1;ratioP1;P1;durP2;ratioP2;P2;SDS_P1;SDS_P2;PMS_P1;PMS_P2;Temp;Humidity;BMP_temperature;BMP_pressure;BME280_temperature;BME280_humidity;BME280_pressure;Samples;Min_cycle;Max_cycle;Signal;HPM_P1;HPM_P2
2022/05/11 00:00:43;;;;;;;11.33;10.53;;;16.80;22.30;;;;;;4916945;29;20471;-71
2022/05/11 00:03:10;;;;;;;9.10;8.50;;;16.80;22.10;;;;;;4917289;29;20776;-71
2022/05/11 00:05:36;;;;;;;9.70;9.10;;;16.80;22.50;;;;;;4917673;29;20203;-71
2022/05/11 00:08:03;;;;;;;9.47;8.87;;;16.70;22.50;;;;;;4921537;29;20457;-71
2022/05/11 00:10:30;;;;;;;8.60;8.10;;;16.60;22.90;;;;;;4935349;29;20433;-71
2022/05/11 00:12:57;;;;;;;9.13;8.13;;;16.50;22.80;;;;;;4935909;29;20943;-71
2022/05/11 00:15:24;;;;;;;9.07;8.47;;;16.50;22.80;;;;;;4933915;29;20466;-71
2022/05/11 00:17:50;;;;;;;9.53;8.90;;;16.40;23.60;;;;;;4929822;29;20427;-71
2022/05/11 00:20:16;;;;;;;8.37;7.70;;;16.30;24.60;;;;;;4916463;29;20975;-71
2022/05/11 00:22:43;;;;;;;8.53;7.93;;;16.30;24.00;;;;;;4916245;29;20423;-71
2022/05/11 00:25:11;;;;;;;7.43;6.83;;;16.20;24.20;;;;;;4916104;29;20520;-71
2022/05/11 00:27:37;;;;;;;7.43;6.93;;;16.10;24.30;;;;;;4918986;29;20422;-70
2022/05/11 00:30:04;;;;;;;8.03;7.43;;;16.10;24.30;;;;;;4935067;29;20429;-71
2022/05/11 00:32:31;;;;;;;8.30;7.60;;;16.00;24.70;;;;;;4935143;29;20731;-71
2022/05/11 00:34:56;;;;;;;8.17;7.67;;;16.00;24.80;;;;;;4935097;29;20806;-71
2022/05/11 00:37:23;;;;;;;7.97;7.33;;;16.00;24.90;;;;;;4932783;29;20422;-71
2022/05/11 00:39:49;;;;;;;7.00;6.50;;;15.90;25.10;;;;;;4915977;29;20570;-71
2022/05/11 00:42:15;;;;;;;7.10;6.60;;;15.80;25.10;;;;;;4916032;29;20435;-71
2022/05/11 00:44:41;;;;;;;7.50;6.93;;;15.80;25.40;;;;;;4915917;29;20206;-71
2022/05/11 00:47:24;;;;;;;8.10;7.50;;;15.70;25.20;;;;;;4897147;29;20427;-71
2022/05/11 00:50:00;;;;;;;8.00;7.30;;;15.50;25.70;;;;;;4897447;29;20273;-71
2022/05/11 00:52:38;;;;;;;6.77;6.27;;;15.50;26.00;;;;;;4897976;29;20516;-71
2022/05/11 00:55:32;;;;;;;7.30;6.70;;;15.40;26.20;;;;;;4898512;29;20459;-71
2022/05/11 00:58:01;;;;;;;6.43;5.93;;;15.30;26.20;;;;;;4913175;29;20939;-71
2022/05/11 01:00:27;;;;;;;6.77;6.27;;;15.30;26.20;;;;;;4935968;29;20826;-71
2022/05/11 01:03:20;;;;;;;7.33;6.83;;;15.30;26.20;;;;;;4935928;29;20416;-71
2022/05/11 01:05:46;;;;;;;6.90;6.33;;;15.30;26.30;;;;;;4933852;29;20451;-71
2022/05/11 01:08:13;;;;;;;6.47;5.97;;;15.20;26.40;;;;;;4923149;29;20527;-71
2022/05/11 01:10:39;;;;;;;7.23;6.63;;;15.20;26.40;;;;;;4914376;29;20428;-70
2022/05/11 01:13:09;;;;;;;7.87;7.23;;;15.20;26.30;;;;;;4915890;29;20434;-71
2022/05/11 01:15:36;;;;;;;6.83;6.30;;;15.10;26.60;;;;;;4916797;29;20477;-71
2022/05/11 01:18:05;;;;;;;7.13;6.43;;;15.10;26.90;;;;;;4929806;29;20517;-71
2022/05/11 01:20:33;;;;;;;6.70;6.20;;;15.00;27.00;;;;;;4938836;29;20500;-71
2022/05/11 01:23:07;;;;;;;7.10;6.50;;;15.00;27.00;;;;;;4938569;29;20413;-71
2022/05/11 01:25:32;;;;;;;6.73;6.13;;;15.00;27.10;;;;;;4938384;29;20528;-71
2022/05/11 01:28:11;;;;;;;7.63;6.07;;;14.90;27.40;;;;;;4923578;29;20521;-71
2022/05/11 01:30:39;;;;;;;6.80;6.13;;;14.80;27.60;;;;;;4919283;29;20585;-71
2022/05/11 01:33:06;;;;;;;6.70;6.07;;;14.80;27.50;;;;;;4919215;29;20456;-71
2022/05/11 01:35:31;;;;;;;6.93;6.43;;;14.80;27.80;;;;;;4919122;29;20444;-70
2022/05/11 01:38:14;;;;;;;6.33;5.83;;;14.80;27.70;;;;;;4931386;29;20425;-71
2022/05/11 01:40:40;;;;;;;6.80;6.30;;;14.70;27.60;;;;;;4938289;29;20678;-71
2022/05/11 01:43:06;;;;;;;5.87;5.33;;;14.60;28.00;;;;;;4920396;29;20435;-70
2022/05/11 01:45:32;;;;;;;6.00;5.50;;;14.50;28.10;;;;;;4912522;29;20209;-71
2022/05/11 01:47:58;;;;;;;6.03;5.53;;;14.50;28.20;;;;;;4926276;29;20969;-71
2022/05/11 01:50:24;;;;;;;5.70;5.27;;;14.40;28.10;;;;;;4936825;29;20429;-71
2022/05/11 01:52:50;;;;;;;6.10;5.60;;;14.40;28.10;;;;;;4936705;29;20182;-71
2022/05/11 01:55:16;;;;;;;6.43;5.90;;;14.40;28.20;;;;;;4937872;29;20968;-71
2022/05/11 01:57:41;;;;;;;7.60;5.43;;;14.40;28.30;;;;;;4926372;29;20187;-70
2022/05/11 02:00:09;;;;;;;6.33;5.70;;;14.40;28.30;;;;;;4917561;29;20499;-70
2022/05/11 02:02:35;;;;;;;6.07;5.57;;;14.40;28.40;;;;;;4918651;29;20616;-70
2022/05/11 02:07:50;;;;;;;6.10;5.60;;;14.30;28.60;;;;;;4919655;29;20811;-70
2022/05/11 02:10:25;;;;;;;6.33;5.83;;;14.20;28.70;;;;;;4918721;29;20416;-71
2022/05/11 02:12:51;;;;;;;6.23;5.73;;;14.20;29.40;;;;;;4918644;29;20914;-71
2022/05/11 02:15:18;;;;;;;5.97;5.47;;;14.10;28.80;;;;;;4918311;29;20460;-71
2022/05/11 02:17:45;;;;;;;5.47;5.07;;;14.10;29.00;;;;;;4936131;29;20187;-71
2022/05/11 02:20:12;;;;;;;6.40;5.80;;;14.00;29.10;;;;;;4937491;29;21047;-70
2022/05/11 02:22:38;;;;;;;7.07;6.10;;;14.00;29.40;;;;;;4936274;29;20478;-71
2022/05/11 02:25:04;;;;;;;5.33;4.83;;;14.00;29.50;;;;;;4936042;29;20450;-71
2022/05/11 02:27:31;;;;;;;6.13;5.53;;;13.90;30.00;;;;;;4920048;29;20199;-71
2022/05/11 02:29:57;;;;;;;6.07;5.57;;;13.90;29.40;;;;;;4917094;29;20868;-70
2022/05/11 02:32:23;;;;;;;5.43;4.83;;;13.80;29.40;;;;;;4935263;29;20462;-72
2022/05/11 02:37:33;;;;;;;7.00;5.50;;;13.80;29.40;;;;;;4936958;29;20417;-71
2022/05/11 02:39:59;;;;;;;4.83;4.43;;;13.70;30.00;;;;;;4937439;29;20501;-69
2022/05/11 02:42:25;;;;;;;6.40;5.80;;;;;;;;;;4920124;29;20467;-70
2022/05/11 02:44:52;;;;;;;4.67;4.27;;;13.70;29.60;;;;;;4917204;29;20346;-70
2022/05/11 02:47:18;;;;;;;6.50;5.40;;;13.60;30.30;;;;;;4918116;29;20937;-71
2022/05/11 02:49:45;;;;;;;6.07;5.57;;;13.60;30.40;;;;;;4918242;29;20510;-71
2022/05/11 02:52:11;;;;;;;5.60;5.10;;;13.50;30.60;;;;;;4933190;29;20560;-71
2022/05/11 02:54:36;;;;;;;5.77;5.33;;;13.50;30.70;;;;;;4936706;29;20430;-71
2022/05/11 02:57:02;;;;;;;10.90;5.63;;;13.50;30.20;;;;;;4936753;29;20784;-71
2022/05/11 02:59:28;;;;;;;5.00;4.43;;;13.50;30.40;;;;;;4935556;29;20560;-73
2022/05/11 03:01:56;;;;;;;6.07;5.33;;;13.50;30.70;;;;;;4918560;29;20519;-70
2022/05/11 03:04:22;;;;;;;5.00;4.60;;;13.50;31.10;;;;;;4917697;29;20463;-70
2022/05/11 03:06:47;;;;;;;4.80;4.40;;;13.50;31.30;;;;;;4917647;29;20431;-71
2022/05/11 03:09:17;;;;;;;5.40;5.00;;;13.40;31.30;;;;;;4916051;29;20234;-73
2022/05/11 03:11:44;;;;;;;5.93;5.40;;;13.40;31.40;;;;;;4933656;29;20198;-71
2022/05/11 03:14:11;;;;;;;5.50;5.00;;;13.40;31.70;;;;;;4898994;29;20423;-71
2022/05/11 03:16:37;;;;;;;5.73;5.20;;;13.40;32.30;;;;;;4898695;29;20455;-70
2022/05/11 03:19:03;;;;;;;5.80;5.20;;;13.40;32.40;;;;;;4899059;29;20914;-70
2022/05/11 03:21:29;;;;;;;7.53;6.67;;;13.50;32.10;;;;;;4927586;29;20476;-70
2022/05/11 03:23:55;;;;;;;6.13;5.63;;;13.50;31.90;;;;;;4936372;29;20513;-70
2022/05/11 03:26:21;;;;;;;6.50;5.70;;;13.50;32.00;;;;;;4934993;29;20529;-70
2022/05/11 03:28:47;;;;;;;5.93;5.37;;;13.50;31.90;;;;;;4936544;29;20183;-70
2022/05/11 03:31:14;;;;;;;5.60;5.13;;;13.50;31.70;;;;;;4924463;29;20458;-70
2022/05/11 03:36:24;;;;;;;6.37;5.73;;;13.60;31.40;;;;;;4917582;29;20458;-70
2022/05/11 03:38:50;;;;;;;6.20;5.60;;;13.60;31.70;;;;;;4916605;29;20420;-70
2022/05/11 03:41:16;;;;;;;5.93;5.33;;;13.60;31.60;;;;;;4932925;29;20272;-70
2022/05/11 03:43:42;;;;;;;10.00;4.77;;;13.60;31.60;;;;;;4936310;29;20937;-70
2022/05/11 03:46:08;;;;;;;5.20;4.70;;;13.50;31.60;;;;;;4920738;29;20866;-70
2022/05/11 03:48:33;;;;;;;6.30;5.13;;;13.50;31.80;;;;;;4897128;29;20180;-70
2022/05/11 03:50:59;;;;;;;7.47;5.20;;;13.50;32.00;;;;;;4928585;29;20438;-70
2022/05/11 03:53:25;;;;;;;5.70;4.53;;;13.50;32.00;;;;;;4936090;29;20422;-71
2022/05/11 03:55:51;;;;;;;5.97;5.37;;;13.50;31.40;;;;;;4934644;29;20271;-71
2022/05/11 03:58:16;;;;;;;6.63;6.00;;;13.50;31.50;;;;;;4936399;29;20427;-71
2022/05/11 04:00:42;;;;;;;7.07;5.60;;;13.60;31.30;;;;;;4924365;29;20206;-71
2022/05/11 04:03:07;;;;;;;5.13;4.70;;;13.60;31.20;;;;;;4916526;29;20194;-71
2022/05/11 04:05:33;;;;;;;7.80;5.27;;;13.50;31.50;;;;;;4917641;29;20283;-71
2022/05/11 04:07:59;;;;;;;5.90;5.30;;;13.60;31.50;;;;;;4916720;29;20184;-71
2022/05/11 04:10:25;;;;;;;6.80;5.50;;;13.60;31.20;;;;;;4930661;29;20518;-71
2022/05/11 04:12:51;;;;;;;5.47;4.90;;;13.60;31.40;;;;;;4936335;29;20603;-71
2022/05/11 04:15:17;;;;;;;5.30;4.90;;;13.70;30.90;;;;;;4934512;29;20222;-71
2022/05/11 04:17:44;;;;;;;6.30;5.60;;;13.70;30.90;;;;;;4935658;29;20217;-71
2022/05/11 04:20:15;;;;;;;6.80;6.20;;;13.80;30.80;;;;;;4920467;29;20520;-71
2022/05/11 04:22:41;;;;;;;19.97;6.47;;;13.90;30.80;;;;;;4916351;29;20495;-72
2022/05/11 04:25:07;;;;;;;5.40;5.00;;;13.90;30.30;;;;;;4916557;29;20534;-72
2022/05/11 04:27:33;;;;;;;5.70;5.20;;;14.00;30.00;;;;;;4916830;29;20420;-72
2022/05/11 04:30:00;;;;;;;5.83;4.70;;;14.10;29.50;;;;;;4928157;29;20447;-72
2022/05/11 04:32:26;;;;;;;6.47;5.90;;;14.20;29.70;;;;;;4935173;29;20847;-72
2022/05/11 04:34:51;;;;;;;7.67;5.70;;;14.20;29.70;;;;;;4935453;29;20442;-71
2022/05/11 04:37:17;;;;;;;6.73;5.87;;;14.30;29.70;;;;;;4935003;29;20445;-71
2022/05/11 04:39:43;;;;;;;5.20;4.80;;;14.30;29.70;;;;;;4925796;29;20222;-71
2022/05/11 04:42:09;;;;;;;6.63;6.00;;;14.30;29.70;;;;;;4916166;29;20185;-71
2022/05/11 04:44:35;;;;;;;7.00;5.70;;;14.50;29.20;;;;;;4916438;29;20260;-71
2022/05/11 04:47:12;;;;;;;5.67;5.17;;;14.50;28.90;;;;;;4898302;29;20430;-70
2022/05/11 04:49:38;;;;;;;7.20;6.50;;;14.60;29.00;;;;;;4913699;29;20170;-71
2022/05/11 04:52:10;;;;;;;5.80;5.30;;;14.70;28.50;;;;;;4934867;29;20436;-71
2022/05/11 04:54:43;;;;;;;6.77;6.20;;;14.80;28.20;;;;;;4934872;29;20511;-72
2022/05/11 04:57:09;;;;;;;6.13;5.57;;;14.90;28.30;;;;;;4934892;29;20985;-71
2022/05/11 04:59:35;;;;;;;8.00;6.40;;;15.00;28.30;;;;;;4921954;29;20430;-72
2022/05/11 05:02:04;;;;;;;7.20;6.60;;;15.20;28.20;;;;;;4915959;29;20459;-71
2022/05/11 05:04:31;;;;;;;7.60;6.90;;;15.40;27.70;;;;;;4916244;29;20525;-70
2022/05/11 05:06:56;;;;;;;7.20;6.60;;;15.60;27.40;;;;;;4915884;29;20477;-70
2022/05/11 05:09:23;;;;;;;11.23;7.73;;;15.90;27.10;;;;;;4926208;29;20438;-71
2022/05/11 05:11:49;;;;;;;8.00;7.40;;;16.60;27.10;;;;;;4933830;29;20594;-71
2022/05/11 05:14:16;;;;;;;8.67;7.97;;;17.70;24.70;;;;;;4934845;29;20430;-74
2022/05/11 05:16:42;;;;;;;11.40;10.40;;;19.10;24.10;;;;;;4957111;23;20505;-70
2022/05/11 05:19:08;;;;;;;11.63;10.93;;;20.20;19.80;;;;;;4916760;29;20422;-70
2022/05/11 05:21:33;;;;;;;12.17;11.57;;;21.20;19.80;;;;;;4934821;29;20214;-70
2022/05/11 05:24:00;;;;;;;12.37;11.83;;;22.20;17.20;;;;;;4935049;29;20422;-69
2022/05/11 05:26:26;;;;;;;14.83;13.60;;;23.10;17.10;;;;;;4917820;29;20232;-70
2022/05/11 05:31:36;;;;;;;15.47;14.67;;;25.50;13.40;;;;;;4934530;29;20425;-70
2022/05/11 05:34:03;;;;;;;15.60;14.90;;;26.60;9.90;;;;;;4935054;29;20411;-70
2022/05/11 05:36:36;;;;;;;15.73;15.03;;;27.10;10.20;;;;;;4917837;29;20553;-70
2022/05/11 05:39:03;;;;;;;15.30;14.70;;;27.70;7.80;;;;;;4934773;29;20430;-70
2022/05/11 05:41:29;;;;;;;15.90;15.30;;;28.50;7.90;;;;;;4934321;29;20493;-70
2022/05/11 05:43:56;;;;;;;16.93;16.23;;;29.00;6.70;;;;;;4934380;29;21035;-70
2022/05/11 05:46:22;;;;;;;17.30;16.50;;;29.40;5.30;;;;;;4934833;29;20707;-69
2022/05/11 05:48:48;;;;;;;16.00;15.30;;;29.50;4.40;;;;;;4934216;29;20501;-70
2022/05/11 05:51:18;;;;;;;17.23;16.43;;;29.90;4.90;;;;;;4934990;29;20414;-71
2022/05/11 05:53:45;;;;;;;16.43;15.73;;;29.60;4.10;;;;;;4934474;29;20564;-69
2022/05/11 05:56:11;;;;;;;17.27;16.27;;;29.40;4.50;;;;;;4934455;29;20518;-70
2022/05/11 05:58:38;;;;;;;17.67;16.87;;;29.10;5.20;;;;;;4934826;29;20431;-71
2022/05/11 06:01:05;;;;;;;18.70;17.70;;;28.60;4.90;;;;;;4934711;29;20454;-70
2022/05/11 06:03:33;;;;;;;18.07;17.17;;;28.00;5.40;;;;;;4938850;29;20484;-70
2022/05/11 06:05:58;;;;;;;18.50;17.60;;;27.20;6.10;;;;;;4941264;29;20437;-71
2022/05/11 06:08:24;;;;;;;18.80;17.77;;;27.00;6.60;;;;;;4940498;29;20716;-70
2022/05/11 06:10:54;;;;;;;17.37;16.47;;;26.60;7.00;;;;;;4938594;29;20210;-71
2022/05/11 06:13:22;;;;;;;18.30;17.40;;;26.40;7.20;;;;;;4938286;29;20270;-70
2022/05/11 06:15:49;;;;;;;18.23;17.23;;;26.60;7.20;;;;;;4937537;29;20473;-70
2022/05/11 06:18:15;;;;;;;17.93;16.80;;;27.10;6.40;;;;;;4936819;29;20493;-71
2022/05/11 06:20:41;;;;;;;18.57;17.57;;;27.70;6.30;;;;;;4937627;29;20454;-70
2022/05/11 06:23:06;;;;;;;16.77;16.00;;;28.30;4.70;;;;;;4937273;29;20456;-70
2022/05/11 06:25:35;;;;;;;18.87;17.87;;;27.90;4.80;;;;;;4920174;29;20202;-70
2022/05/11 06:28:01;;;;;;;19.50;18.40;;;27.60;4.70;;;;;;4936807;29;20278;-70
2022/05/11 06:30:28;;;;;;;18.17;17.23;;;27.40;5.20;;;;;;4937528;29;20422;-70
2022/05/11 06:32:54;;;;;;;17.57;16.73;;;27.30;5.40;;;;;;4938018;29;20791;-71
2022/05/11 06:35:20;;;;;;;18.00;17.20;;;27.10;5.90;;;;;;4937236;29;20498;-73
2022/05/11 06:37:46;;;;;;;17.70;16.90;;;27.00;5.80;;;;;;4918181;29;20835;-74
2022/05/11 06:40:16;;;;;;;17.90;16.87;;;26.90;6.10;;;;;;4951744;28;20257;-74
2022/05/11 06:42:42;;;;;;;19.47;18.37;;;27.10;6.50;;;;;;4917244;29;20191;-73
2022/05/11 06:45:09;;;;;;;17.70;16.60;;;27.60;6.00;;;;;;4918240;29;20866;-74
2022/05/11 06:47:35;;;;;;;17.63;16.83;;;28.20;5.30;;;;;;4917753;29;20431;-74
2022/05/11 06:50:02;;;;;;;17.33;16.43;;;28.00;4.70;;;;;;4917789;29;20474;-74
2022/05/11 06:52:28;;;;;;;17.47;16.47;;;28.10;5.00;;;;;;4900937;29;20191;-74
2022/05/11 07:00:27;;;;;;;16.90;16.10;;;31.10;2.00;;;;;;4929748;29;20506;-73
2022/05/11 07:02:52;;;;;;;17.13;16.30;;;31.40;2.20;;;;;;4932488;29;20430;-71
2022/05/11 07:05:18;;;;;;;17.80;16.90;;;32.40;1.10;;;;;;4936482;29;20445;-72
2022/05/11 07:07:43;;;;;;;16.63;15.83;;;33.00;1.00;;;;;;4935889;29;20190;-71
2022/05/11 07:10:10;;;;;;;17.00;16.10;;;33.50;1.00;;;;;;4936698;29;20638;-71
2022/05/11 07:12:38;;;;;;;17.43;16.63;;;34.20;1.00;;;;;;4919601;29;20181;-70
2022/05/11 07:15:08;;;;;;;16.23;15.43;;;34.90;1.00;;;;;;4936295;29;20454;-72
2022/05/11 07:17:42;;;;;;;17.10;16.03;;;35.50;1.00;;;;;;4920052;29;20438;-72
2022/05/11 07:20:15;;;;;;;17.83;17.03;;;36.10;1.00;;;;;;4938054;29;20454;-72
2022/05/11 07:22:41;;;;;;;17.00;16.30;;;36.30;1.00;;;;;;4936161;29;21122;-73
2022/05/11 07:25:09;;;;;;;17.47;16.57;;;36.30;1.00;;;;;;4937011;29;20512;-72
2022/05/11 07:27:35;;;;;;;17.30;16.40;;;36.40;1.00;;;;;;4937397;29;20656;-73
2022/05/11 07:30:03;;;;;;;19.77;17.93;;;36.60;1.00;;;;;;4933185;29;20488;-73
2022/05/11 07:32:29;;;;;;;17.77;16.40;;;36.70;1.00;;;;;;4917680;29;20430;-73
2022/05/11 07:34:55;;;;;;;17.50;16.70;;;37.00;1.00;;;;;;4936088;29;20830;-73
2022/05/11 07:37:20;;;;;;;16.90;15.70;;;37.20;1.00;;;;;;4925850;29;20331;-73
2022/05/11 07:39:46;;;;;;;16.43;15.73;;;36.60;1.00;;;;;;4918049;29;20231;-74
2022/05/11 07:42:12;;;;;;;17.17;16.27;;;35.90;1.00;;;;;;4917061;29;20664;-73
2022/05/11 07:44:38;;;;;;;16.40;15.70;;;36.20;1.00;;;;;;4935218;29;20517;-75
2022/05/11 07:47:04;;;;;;;17.33;16.53;;;36.50;1.00;;;;;;4936454;29;20649;-73
2022/05/11 07:49:29;;;;;;;17.90;16.90;;;36.50;1.00;;;;;;4935941;29;20186;-73
2022/05/11 07:51:55;;;;;;;16.17;15.47;;;36.30;1.00;;;;;;4936180;29;20186;-72
2022/05/11 07:54:21;;;;;;;17.20;16.20;;;36.40;1.00;;;;;;4935986;29;20182;-75
2022/05/11 08:02:15;;;;;;;16.60;15.80;;;36.00;1.00;;;;;;4935751;29;20541;-75
2022/05/11 08:04:41;;;;;;;16.70;15.93;;;36.20;1.00;;;;;;4936171;29;20493;-75
2022/05/11 08:07:08;;;;;;;15.43;14.83;;;36.10;1.00;;;;;;4918898;29;20182;-75
2022/05/11 08:09:34;;;;;;;15.73;14.93;;;35.90;1.00;;;;;;4932511;29;20187;-74
2022/05/11 08:12:00;;;;;;;16.33;15.63;;;35.70;1.00;;;;;;4927459;29;20510;-74
2022/05/11 08:14:26;;;;;;;15.00;14.40;;;35.50;1.00;;;;;;4933856;29;20203;-74
2022/05/11 08:16:52;;;;;;;16.70;15.90;;;35.20;1.00;;;;;;4934429;29;20493;-75
2022/05/11 08:19:26;;;;;;;16.43;15.63;;;34.40;1.00;;;;;;4935894;29;20407;-75
2022/05/11 08:21:52;;;;;;;16.80;16.00;;;33.80;1.00;;;;;;4935773;29;20418;-74
2022/05/11 08:24:19;;;;;;;16.43;15.73;;;33.40;1.00;;;;;;4936449;29;20431;-75
2022/05/11 08:26:46;;;;;;;15.70;15.00;;;33.50;1.00;;;;;;4934274;29;20449;-75
2022/05/11 08:33:19;;;;;;;17.83;16.73;;;33.50;1.00;;;;;;4936099;29;20450;-73
2022/05/11 08:34:43;;;;;;;16.77;15.93;;;33.50;1.00;;;;;;4936578;29;20521;-75
2022/05/11 08:37:09;;;;;;;17.10;16.30;;;32.80;1.00;;;;;;4934956;29;20501;-74
2022/05/11 08:39:34;;;;;;;17.23;16.53;;;32.50;1.00;;;;;;4934838;29;20182;-74
2022/05/11 08:42:01;;;;;;;17.40;16.50;;;32.40;1.00;;;;;;4935105;29;20473;-74
2022/05/11 08:44:32;;;;;;;18.40;17.17;;;32.20;1.00;;;;;;4934903;29;20591;-74
2022/05/11 08:47:22;;;;;;;17.70;16.97;;;32.00;1.00;;;;;;4935043;29;20422;-74
2022/05/11 08:50:09;;;;;;;17.07;16.47;;;31.50;1.00;;;;;;4934709;29;20481;-74
2022/05/11 08:52:57;;;;;;;17.90;17.20;;;31.10;1.00;;;;;;4934745;29;20490;-74
2022/05/11 08:55:48;;;;;;;17.67;16.53;;;30.40;1.00;;;;;;4934941;29;20941;-74
2022/05/11 08:58:33;;;;;;;17.43;16.53;;;30.00;1.00;;;;;;4934690;29;20411;-74
2022/05/11 09:01:01;;;;;;;18.20;17.07;;;29.60;1.00;;;;;;4934892;29;20418;-74
2022/05/11 09:03:53;;;;;;;15.93;15.33;;;29.20;1.00;;;;;;4934517;29;20835;-74
2022/05/11 09:06:23;;;;;;;18.80;17.80;;;28.90;1.00;;;;;;4930490;29;20447;-74
2022/05/11 09:08:49;;;;;;;18.63;17.63;;;28.60;1.00;;;;;;4934204;29;20426;-74
2022/05/11 09:11:21;;;;;;;17.03;16.23;;;28.30;1.30;;;;;;4934363;29;20457;-74
2022/05/11 09:13:47;;;;;;;15.87;15.20;;;28.00;1.00;;;;;;4934424;29;20183;-74
2022/05/11 09:16:28;;;;;;;16.83;16.13;;;27.90;1.90;;;;;;4934333;29;20457;-73
2022/05/11 09:18:56;;;;;;;17.10;16.30;;;27.80;1.80;;;;;;4917314;29;20178;-73
2022/05/11 09:21:36;;;;;;;15.90;15.00;;;27.60;2.10;;;;;;4934750;29;20505;-73
2022/05/11 09:24:19;;;;;;;15.83;15.23;;;27.50;1.90;;;;;;4934776;29;20920;-73
2022/05/11 09:26:46;;;;;;;17.77;16.50;;;27.50;2.40;;;;;;4917708;29;20446;-72
2022/05/11 09:29:22;;;;;;;16.30;15.50;;;27.30;2.90;;;;;;4934429;29;20454;-73
2022/05/11 09:31:52;;;;;;;17.07;15.97;;;27.20;2.80;;;;;;4934324;29;20461;-74
2022/05/11 09:34:25;;;;;;;16.57;15.80;;;27.20;2.80;;;;;;4917237;29;20426;-73
2022/05/11 09:37:22;;;;;;;16.23;15.53;;;27.30;2.90;;;;;;4935135;29;20928;-74
2022/05/11 09:40:02;;;;;;;15.93;15.33;;;27.30;2.90;;;;;;4920834;29;20423;-73
2022/05/11 09:42:30;;;;;;;16.63;15.93;;;27.40;2.90;;;;;;4938226;29;20505;-74
2022/05/11 09:44:56;;;;;;;17.00;16.30;;;27.40;2.90;;;;;;4938241;29;20441;-73
2022/05/11 09:47:22;;;;;;;17.10;16.20;;;27.40;3.00;;;;;;4937834;29;20850;-73
2022/05/11 09:49:47;;;;;;;16.00;15.30;;;27.40;2.90;;;;;;4938065;29;20413;-73
2022/05/11 09:52:31;;;;;;;16.20;15.50;;;27.40;2.90;;;;;;4938290;29;20266;-73
2022/05/11 09:54:58;;;;;;;16.47;15.77;;;27.50;3.60;;;;;;4938115;29;20250;-73
2022/05/11 09:57:28;;;;;;;15.73;15.13;;;27.40;2.90;;;;;;4937615;29;20419;-74
2022/05/11 10:00:21;;;;;;;16.20;15.57;;;27.40;2.90;;;;;;4937817;29;20482;-73
2022/05/11 10:02:53;;;;;;;16.90;16.00;;;27.40;2.90;;;;;;4937880;29;20466;-73
2022/05/11 10:05:26;;;;;;;16.70;15.97;;;27.50;3.00;;;;;;4937833;29;20783;-73
2022/05/11 10:08:19;;;;;;;16.90;16.20;;;27.50;3.00;;;;;;4938878;29;20414;-73
2022/05/11 10:10:54;;;;;;;16.63;15.93;;;27.60;3.00;;;;;;4938140;29;20462;-73
2022/05/11 10:13:49;;;;;;;16.57;15.67;;;27.60;3.00;;;;;;4937911;29;20406;-73
2022/05/11 10:22:11;;;;;;;18.23;17.13;;;28.00;2.20;;;;;;4937860;29;20466;-73
2022/05/11 10:25:03;;;;;;;17.40;16.40;;;28.10;1.60;;;;;;4937547;29;20418;-73
2022/05/11 10:27:35;;;;;;;16.40;15.50;;;28.20;1.70;;;;;;4920253;29;20738;-73
2022/05/11 10:30:32;;;;;;;16.47;15.80;;;28.30;1.70;;;;;;4937378;29;20549;-73
2022/05/11 10:33:20;;;;;;;16.53;15.83;;;28.40;1.30;;;;;;4937256;29;20414;-74
2022/05/11 10:35:59;;;;;;;17.70;16.90;;;28.60;1.40;;;;;;4937063;29;20481;-73
2022/05/11 10:38:36;;;;;;;17.00;16.30;;;28.90;1.20;;;;;;4937500;29;20421;-74
2022/05/11 10:41:36;;;;;;;17.03;16.33;;;29.10;1.00;;;;;;4938904;29;20402;-74
2022/05/11 10:44:40;;;;;;;16.77;15.97;;;29.10;1.00;;;;;;4938745;29;20406;-74
2022/05/11 10:47:18;;;;;;;16.47;15.77;;;29.10;1.00;;;;;;4937746;29;20430;-74
2022/05/11 10:50:12;;;;;;;16.60;15.90;;;29.40;1.00;;;;;;4937136;29;20505;-74
2022/05/11 10:52:53;;;;;;;17.00;16.10;;;29.40;1.00;;;;;;4924969;29;20438;-74
2022/05/11 10:55:25;;;;;;;17.50;16.70;;;29.50;1.00;;;;;;4920880;29;20450;-74
2022/05/11 10:58:10;;;;;;;17.40;16.60;;;29.40;1.00;;;;;;4937942;29;20418;-74
2022/05/11 11:01:08;;;;;;;16.80;16.07;;;29.30;1.00;;;;;;4937054;29;20787;-74
2022/05/11 11:03:39;;;;;;;17.50;16.70;;;29.30;1.00;;;;;;4927740;29;20486;-74
2022/05/11 11:09:42;;;;;;;17.90;17.10;;;29.30;1.00;;;;;;4936396;29;20412;-74
2022/05/11 11:12:32;;;;;;;17.00;16.30;;;29.10;1.00;;;;;;4936735;29;20474;-74
2022/05/11 11:17:27;;;;;;;17.13;16.43;;;29.10;1.00;;;;;;4972090;28;20752;-75
2022/05/11 11:19:55;;;;;;;18.53;17.63;;;29.20;1.00;;;;;;4975307;28;20424;-75
2022/05/11 11:22:21;;;;;;;18.10;17.07;;;29.30;1.00;;;;;;4957808;28;20417;-75
2022/05/11 11:25:12;;;;;;;17.27;16.37;;;29.50;1.00;;;;;;4974877;28;20508;-75
2022/05/11 11:28:00;;;;;;;16.20;15.57;;;29.70;1.00;;;;;;4955925;29;20552;-75
2022/05/11 11:30:26;;;;;;;17.60;16.77;;;29.80;1.00;;;;;;4938563;29;20461;-75
2022/05/11 11:33:23;;;;;;;18.57;17.20;;;29.80;1.00;;;;;;4938621;29;20473;-75
2022/05/11 11:35:58;;;;;;;18.30;17.30;;;30.00;1.00;;;;;;4944104;28;20210;-76
2022/05/11 11:38:28;;;;;;;16.97;16.07;;;30.10;1.00;;;;;;4955532;29;20409;-75
2022/05/11 11:41:10;;;;;;;17.30;16.50;;;30.00;1.00;;;;;;4955371;29;20448;-75
2022/05/11 11:43:42;;;;;;;17.37;16.67;;;29.80;1.00;;;;;;4955611;29;20418;-75
2022/05/11 11:46:08;;;;;;;15.57;14.97;;;30.00;1.00;;;;;;4955450;28;20982;-75
2022/05/11 11:48:35;;;;;;;16.17;15.33;;;30.00;1.00;;;;;;4955525;29;20443;-75
2022/05/11 11:51:04;;;;;;;16.50;15.60;;;30.20;1.00;;;;;;4955168;29;20576;-75
2022/05/11 11:53:34;;;;;;;16.63;15.83;;;30.30;1.00;;;;;;4955190;29;20417;-75
2022/05/11 11:56:33;;;;;;;15.67;14.97;;;30.40;1.00;;;;;;4955063;28;20460;-75
2022/05/11 11:59:23;;;;;;;18.10;16.77;;;30.40;1.00;;;;;;4954822;29;20899;-75
2022/05/11 12:01:51;;;;;;;18.40;16.97;;;30.30;1.00;;;;;;4954408;28;20410;-75
2022/05/11 12:04:36;;;;;;;15.77;15.13;;;30.40;1.00;;;;;;4955017;29;20413;-75
2022/05/11 12:15:30;;;;;;;15.70;15.00;;;30.40;1.00;;;;;;4954898;28;20464;-74
2022/05/11 12:17:56;;;;;;;16.83;15.90;;;30.50;1.00;;;;;;4937223;29;20799;-75
2022/05/11 12:20:22;;;;;;;15.40;14.80;;;30.50;1.00;;;;;;4953136;29;20424;-75
2022/05/11 12:22:57;;;;;;;16.90;15.90;;;30.50;1.00;;;;;;4954619;29;20181;-75
2022/05/11 12:25:33;;;;;;;16.83;15.93;;;30.50;1.00;;;;;;4954664;28;20862;-75
2022/05/11 12:28:01;;;;;;;17.43;16.43;;;30.50;1.00;;;;;;4954651;29;20422;-75
2022/05/11 12:30:30;;;;;;;16.80;16.10;;;30.50;1.00;;;;;;4954214;29;20491;-75
2022/05/11 12:33:04;;;;;;;15.63;14.93;;;30.50;1.00;;;;;;4954385;29;20422;-75
2022/05/11 12:35:36;;;;;;;16.67;15.97;;;30.50;1.00;;;;;;4954638;28;20444;-75
2022/05/11 12:38:23;;;;;;;16.70;16.00;;;30.70;1.00;;;;;;4954028;29;20425;-75
2022/05/11 12:40:51;;;;;;;16.50;15.70;;;30.70;1.00;;;;;;4954543;29;20520;-74
2022/05/11 12:43:27;;;;;;;17.07;16.27;;;30.80;1.00;;;;;;4954238;29;20761;-76
2022/05/11 12:45:59;;;;;;;16.73;15.93;;;30.70;1.00;;;;;;4954139;28;20460;-75
2022/05/11 12:48:32;;;;;;;16.03;15.23;;;30.60;1.00;;;;;;4953683;29;20424;-75
2022/05/11 12:51:01;;;;;;;16.20;15.50;;;30.60;1.00;;;;;;4954406;29;20496;-75
2022/05/11 12:53:30;;;;;;;17.33;16.43;;;30.50;1.00;;;;;;4954150;29;20417;-75
2022/05/11 12:56:10;;;;;;;16.03;15.27;;;30.50;1.00;;;;;;4953868;28;20938;-75
2022/05/11 12:58:51;;;;;;;16.97;16.17;;;30.50;1.00;;;;;;4953661;29;20505;-74
2022/05/11 13:01:21;;;;;;;16.73;15.93;;;30.30;1.00;;;;;;4954165;29;20509;-74
2022/05/11 13:03:51;;;;;;;15.80;15.00;;;30.10;1.00;;;;;;4954191;29;20414;-74
2022/05/11 13:06:24;;;;;;;15.13;14.53;;;30.20;1.00;;;;;;4954218;28;20481;-74
2022/05/11 13:08:54;;;;;;;17.23;16.20;;;30.20;1.00;;;;;;4953485;29;20477;-74
2022/05/11 13:11:26;;;;;;;16.50;15.77;;;30.20;1.00;;;;;;4937295;29;20989;-75
2022/05/11 13:13:55;;;;;;;15.80;15.10;;;30.20;1.00;;;;;;4954081;29;20425;-75
2022/05/11 13:16:31;;;;;;;15.87;15.17;;;30.30;1.00;;;;;;4952315;28;20954;-75
2022/05/11 13:19:24;;;;;;;16.83;15.80;;;30.30;1.00;;;;;;4936542;29;20799;-75
2022/05/11 13:21:50;;;;;;;16.50;15.70;;;30.20;1.00;;;;;;4953995;29;20830;-75
2022/05/11 13:24:35;;;;;;;16.70;15.67;;;30.20;1.00;;;;;;4954131;29;20484;-76
2022/05/11 13:27:00;;;;;;;15.73;14.97;;;30.10;1.00;;;;;;4954016;28;20440;-76
2022/05/11 13:29:28;;;;;;;16.20;15.50;;;30.20;1.00;;;;;;4953884;29;20413;-77
2022/05/11 13:32:06;;;;;;;15.33;14.63;;;30.10;1.00;;;;;;4953879;29;20206;-75
2022/05/11 13:34:41;;;;;;;15.30;14.60;;;30.30;1.00;;;;;;4953785;29;20448;-77
2022/05/11 13:37:24;;;;;;;16.27;15.00;;;30.40;1.00;;;;;;4953532;28;20492;-76
2022/05/11 13:39:50;;;;;;;15.53;14.83;;;30.50;1.00;;;;;;4953649;29;20414;-75
2022/05/11 13:42:20;;;;;;;15.93;15.30;;;30.50;1.00;;;;;;4953802;29;20422;-75